sensor_id;sensor_type;location;lat;lon;timestamp;pressure;altitude;pressure_sealevel;temperature
69590;BMP180;56792;50.644;17.984;2022-09-03T00:02:42;99980.60;;;13.40
69590;BMP180;56792;50.644;17.984;2022-09-03T00:05:50;99985.20;;;13.40
69590;BMP180;56792;50.644;17.984;2022-09-03T00:08:57;99982.40;;;13.30
69590;BMP180;56792;50.644;17.984;2022-09-03T00:12:08;99976.00;;;13.30
69590;BMP180;56792;50.644;17.984;2022-09-03T00:15:16;99975.40;;;13.20
69590;BMP180;56792;50.644;17.984;2022-09-03T00:18:07;99972.00;;;13.20
69590;BMP180;56792;50.644;17.984;2022-09-03T00:21:11;99976.00;;;13.10
69590;BMP180;56792;50.644;17.984;2022-09-03T00:23:55;99971.20;;;13.10
69590;BMP180;56792;50.644;17.984;2022-09-03T00:27:02;99973.80;;;13.04
69590;BMP180;56792;50.644;17.984;2022-09-03T00:29:56;99970.60;;;13.00
69590;BMP180;56792;50.644;17.984;2022-09-03T00:33:04;99966.40;;;13.00
69590;BMP180;56792;50.644;17.984;2022-09-03T00:36:18;99965.20;;;12.90
69590;BMP180;56792;50.644;17.984;2022-09-03T00:39:21;99959.00;;;12.90
69590;BMP180;56792;50.644;17.984;2022-09-03T00:42:41;99960.00;;;12.80
69590;BMP180;56792;50.644;17.984;2022-09-03T00:45:53;99961.20;;;12.80
69590;BMP180;56792;50.644;17.984;2022-09-03T18:43:08;99951.20;;;16.82
69590;BMP180;56792;50.644;17.984;2022-09-03T18:46:06;99957.80;;;16.90
69590;BMP180;56792;50.644;17.984;2022-09-03T18:49:10;99959.20;;;16.90
69590;BMP180;56792;50.644;17.984;2022-09-03T18:52:09;99956.20;;;16.82
69590;BMP180;56792;50.644;17.984;2022-09-03T18:55:14;99953.00;;;16.80
69590;BMP180;56792;50.644;17.984;2022-09-03T18:58:18;99955.00;;;16.80
69590;BMP180;56792;50.644;17.984;2022-09-03T19:01:24;99960.80;;;16.78
69590;BMP180;56792;50.644;17.984;2022-09-03T19:04:26;99961.60;;;16.70
69590;BMP180;56792;50.644;17.984;2022-09-03T19:07:31;99963.00;;;16.70
69590;BMP180;56792;50.644;17.984;2022-09-03T19:10:32;99968.60;;;16.68
69590;BMP180;56792;50.644;17.984;2022-09-03T19:13:35;99971.20;;;16.62
69590;BMP180;56792;50.644;17.984;2022-09-03T19:16:38;99970.20;;;16.60
69590;BMP180;56792;50.644;17.984;2022-09-03T19:20:00;99967.40;;;16.60
69590;BMP180;56792;50.644;17.984;2022-09-03T19:22:51;99971.00;;;16.60
69590;BMP180;56792;50.644;17.984;2022-09-03T19:25:41;99973.00;;;16.60
69590;BMP180;56792;50.644;17.984;2022-09-03T19:28:36;99973.60;;;16.60
69590;BMP180;56792;50.644;17.984;2022-09-03T19:31:46;99970.00;;;16.60
69590;BMP180;56792;50.644;17.984;2022-09-03T19:35:08;99972.20;;;16.60
69590;BMP180;56792;50.644;17.984;2022-09-03T19:38:14;99972.00;;;16.60
69590;BMP180;56792;50.644;17.984;2022-09-03T19:41:22;99968.00;;;16.50
69590;BMP180;56792;50.644;17.984;2022-09-03T19:44:44;99972.40;;;16.50
69590;BMP180;56792;50.644;17.984;2022-09-03T19:47:54;99973.20;;;16.50
69590;BMP180;56792;50.644;17.984;2022-09-03T19:51:03;99971.40;;;16.50
69590;BMP180;56792;50.644;17.984;2022-09-03T19:53:58;99971.00;;;16.40
69590;BMP180;56792;50.644;17.984;2022-09-03T19:56:50;99970.60;;;16.40
69590;BMP180;56792;50.644;17.984;2022-09-03T19:59:46;99977.00;;;16.40
69590;BMP180;56792;50.644;17.984;2022-09-03T20:02:46;99979.80;;;16.30
69590;BMP180;56792;50.644;17.984;2022-09-03T20:05:39;99982.60;;;16.30
69590;BMP180;56792;50.644;17.984;2022-09-03T20:08:31;99979.40;;;16.24
69590;BMP180;56792;50.644;17.984;2022-09-03T20:11:23;99978.00;;;16.20
69590;BMP180;56792;50.644;17.984;2022-09-03T20:13:59;99984.20;;;16.20
69590;BMP180;56792;50.644;17.984;2022-09-03T20:16:59;99985.40;;;16.10
69590;BMP180;56792;50.644;17.984;2022-09-03T20:19:51;99984.60;;;16.10
69590;BMP180;56792;50.644;17.984;2022-09-03T20:22:37;99981.00;;;16.00
69590;BMP180;56792;50.644;17.984;2022-09-03T20:25:31;99973.20;;;15.96
69590;BMP180;56792;50.644;17.984;2022-09-03T20:28:17;99974.40;;;15.90
69590;BMP180;56792;50.644;17.984;2022-09-03T20:31:04;99975.40;;;15.88
69590;BMP180;56792;50.644;17.984;2022-09-03T20:33:59;99979.20;;;15.80
69590;BMP180;56792;50.644;17.984;2022-09-03T20:36:46;99988.40;;;15.76
69590;BMP180;56792;50.644;17.984;2022-09-03T20:39:47;99985.80;;;15.70
69590;BMP180;56792;50.644;17.984;2022-09-03T20:42:45;99979.00;;;15.60
69590;BMP180;56792;50.644;17.984;2022-09-03T20:45:28;99980.00;;;15.60
69590;BMP180;56792;50.644;17.984;2022-09-03T20:48:18;99982.00;;;15.50
69590;BMP180;56792;50.644;17.984;2022-09-03T20:51:00;99973.80;;;15.50
69590;BMP180;56792;50.644;17.984;2022-09-03T20:53:55;99978.40;;;15.40
69590;BMP180;56792;50.644;17.984;2022-09-03T20:56:44;99983.80;;;15.40
69590;BMP180;56792;50.644;17.984;2022-09-03T20:59:29;99986.40;;;15.30
69590;BMP180;56792;50.644;17.984;2022-09-03T21:02:15;99984.60;;;15.30
69590;BMP180;56792;50.644;17.984;2022-09-03T21:05:05;99990.40;;;15.24
69590;BMP180;56792;50.644;17.984;2022-09-03T21:07:55;99996.00;;;15.20
69590;BMP180;56792;50.644;17.984;2022-09-03T21:10:37;99990.40;;;15.12
69590;BMP180;56792;50.644;17.984;2022-09-03T21:13:26;99988.40;;;15.10
69590;BMP180;56792;50.644;17.984;2022-09-03T21:16:18;99987.40;;;15.10
69590;BMP180;56792;50.644;17.984;2022-09-03T21:19:06;99985.40;;;15.00
69590;BMP180;56792;50.644;17.984;2022-09-03T21:21:54;99983.80;;;14.98
69590;BMP180;56792;50.644;17.984;2022-09-03T21:24:35;99986.20;;;14.90
69590;BMP180;56792;50.644;17.984;2022-09-03T21:27:15;99983.00;;;14.90
69590;BMP180;56792;50.644;17.984;2022-09-03T21:29:59;99987.60;;;14.80
69590;BMP180;56792;50.644;17.984;2022-09-03T21:32:40;99989.40;;;14.80
69590;BMP180;56792;50.644;17.984;2022-09-03T21:35:22;99991.80;;;14.80
69590;BMP180;56792;50.644;17.984;2022-09-03T21:38:02;100003.20;;;14.70
69590;BMP180;56792;50.644;17.984;2022-09-03T21:40:40;99995.60;;;14.70
69590;BMP180;56792;50.644;17.984;2022-09-03T21:43:21;100002.00;;;14.60
69590;BMP180;56792;50.644;17.984;2022-09-03T21:46:02;100006.40;;;14.50
69590;BMP180;56792;50.644;17.984;2022-09-03T21:48:41;100005.40;;;14.50
69590;BMP180;56792;50.644;17.984;2022-09-03T21:51:24;100007.20;;;14.46
69590;BMP180;56792;50.644;17.984;2022-09-03T21:54:04;100003.40;;;14.40
69590;BMP180;56792;50.644;17.984;2022-09-03T21:57:02;100006.00;;;14.38
69590;BMP180;56792;50.644;17.984;2022-09-03T22:00:05;100004.00;;;14.30
69590;BMP180;56792;50.644;17.984;2022-09-03T22:02:45;99999.20;;;14.30
69590;BMP180;56792;50.644;17.984;2022-09-03T22:05:19;100001.00;;;14.28
69590;BMP180;56792;50.644;17.984;2022-09-03T22:08:13;100000.40;;;14.20
69590;BMP180;56792;50.644;17.984;2022-09-03T22:10:57;100000.80;;;14.10
69590;BMP180;56792;50.644;17.984;2022-09-03T22:13:39;100006.20;;;14.10
69590;BMP180;56792;50.644;17.984;2022-09-03T22:16:24;100012.60;;;14.10
69590;BMP180;56792;50.644;17.984;2022-09-03T22:19:01;100015.00;;;14.02
69590;BMP180;56792;50.644;17.984;2022-09-03T22:21:44;100014.80;;;14.00
69590;BMP180;56792;50.644;17.984;2022-09-03T22:24:40;100014.60;;;13.98
69590;BMP180;56792;50.644;17.984;2022-09-03T22:27:25;100008.60;;;13.90
69590;BMP180;56792;50.644;17.984;2022-09-03T22:30:08;100013.00;;;13.90
69590;BMP180;56792;50.644;17.984;2022-09-03T22:32:53;100016.60;;;13.90
69590;BMP180;56792;50.644;17.984;2022-09-03T22:35:47;100016.40;;;13.80
69590;BMP180;56792;50.644;17.984;2022-09-03T22:39:17;100012.00;;;13.80
69590;BMP180;56792;50.644;17.984;2022-09-03T22:42:16;100011.60;;;13.80
69590;BMP180;56792;50.644;17.984;2022-09-03T22:45:21;100008.40;;;13.78
69590;BMP180;56792;50.644;17.984;2022-09-03T22:48:13;100012.80;;;13.76
69590;BMP180;56792;50.644;17.984;2022-09-03T22:50:56;100009.40;;;13.70
69590;BMP180;56792;50.644;17.984;2022-09-03T22:53:49;100006.20;;;13.70
69590;BMP180;56792;50.644;17.984;2022-09-03T22:56:24;100001.60;;;13.70
69590;BMP180;56792;50.644;17.984;2022-09-03T22:59:02;100004.60;;;13.70
69590;BMP180;56792;50.644;17.984;2022-09-03T23:01:41;100006.60;;;13.70
69590;BMP180;56792;50.644;17.984;2022-09-03T23:04:24;100008.40;;;13.70
69590;BMP180;56792;50.644;17.984;2022-09-03T23:07:04;100009.00;;;13.70
69590;BMP180;56792;50.644;17.984;2022-09-03T23:09:44;100006.40;;;13.68
69590;BMP180;56792;50.644;17.984;2022-09-03T23:12:25;100007.40;;;13.60
69590;BMP180;56792;50.644;17.984;2022-09-03T23:15:03;100008.60;;;13.60
69590;BMP180;56792;50.644;17.984;2022-09-03T23:18:14;100007.40;;;13.60
69590;BMP180;56792;50.644;17.984;2022-09-03T23:21:22;100006.00;;;13.50
69590;BMP180;56792;50.644;17.984;2022-09-03T23:24:00;100009.00;;;13.50
69590;BMP180;56792;50.644;17.984;2022-09-03T23:26:41;100008.80;;;13.50
69590;BMP180;56792;50.644;17.984;2022-09-03T23:29:19;100002.20;;;13.40
69590;BMP180;56792;50.644;17.984;2022-09-03T23:31:58;100003.60;;;13.40
69590;BMP180;56792;50.644;17.984;2022-09-03T23:34:33;100006.40;;;13.40
69590;BMP180;56792;50.644;17.984;2022-09-03T23:37:43;100006.60;;;13.32
69590;BMP180;56792;50.644;17.984;2022-09-03T23:40:30;99999.80;;;13.30
69590;BMP180;56792;50.644;17.984;2022-09-03T23:43:36;99996.00;;;13.30
69590;BMP180;56792;50.644;17.984;2022-09-03T23:46:19;99991.20;;;13.20
69590;BMP180;56792;50.644;17.984;2022-09-03T23:49:25;99985.00;;;13.20
69590;BMP180;56792;50.644;17.984;2022-09-03T23:55:27;99997.40;;;13.10
69590;BMP180;56792;50.644;17.984;2022-09-03T23:58:15;99998.00;;;13.10
